Data for 08/21/2015

Time Sea-Level Adjusted Pressure Absolute Pressure Temperature Relative Humidity Dew Point   
(mb) (inHg) (mb) (inHg) (C) (F) (%) (C) (F)
00:05 1013 29.91 842 24.86 14.6 58.4 39 0.9 33.6
00:10 1013 29.91 842 24.86 14.8 58.6 39 1 33.7
00:15 1013 29.91 842 24.86 14.8 58.6 40 1.2 34.2
00:20 1013 29.91 842 24.86 14.5 58.1 41 1.6 34.8
00:25 1013 29.91 842 24.86 14.1 57.4 43 1.7 35
00:30 1013 29.91 842 24.86 13.9 57 39 0.2 32.4
00:35 1013 29.91 842 24.86 14.4 57.9 37 0 32
00:40 1013 29.91 842 24.86 14.6 58.3 37 0.3 32.5
00:45 1013 29.91 842 24.86 14.6 58.2 39 0.8 33.5
00:50 1013 29.91 842 24.86 14.2 57.6 41 1.2 34.2
00:55 1013 29.91 842 24.86 14 57.2 40 0.8 33.4
01:00 1013 29.91 842 24.86 14.1 57.3 41 1.1 33.9
01:05 1013 29.91 842 24.86 14.4 57.9 37 0 32.1
01:10 1012 29.88 842 24.86 15.1 59.1 37 0.6 33.1
01:15 1012 29.88 842 24.86 15.1 59.1 39 1.4 34.4
01:20 1012 29.88 842 24.86 14.6 58.3 39 0.9 33.6
01:25 1012 29.88 842 24.86 14.6 58.3 39 0.9 33.6
01:30 1012 29.88 842 24.86 14.3 57.7 41 1.4 34.4
01:35 1012 29.88 842 24.86 14 57.1 41 1 33.8
01:40 1012 29.88 842 24.86 14.1 57.3 42 1.4 34.4
01:45 1012 29.88 841 24.83 13.6 56.5 43 1.2 34.2
01:50 1012 29.88 841 24.83 13.8 56.8 41 0.9 33.6
01:55 1012 29.88 841 24.83 14.2 57.5 40 0.8 33.4
02:00 1012 29.88 841 24.83 14.2 57.5 41 1.3 34.4
02:05 1012 29.88 841 24.83 13.7 56.7 43 1.5 34.6
02:10 1012 29.88 841 24.83 13.8 56.8 43 1.5 34.8
02:15 1012 29.88 841 24.83 13.5 56.2 44 1.5 34.6
02:20 1012 29.88 841 24.83 13.5 56.3 44 1.7 35
02:25 1012 29.88 841 24.83 13.3 56 45 1.6 34.9
02:30 1012 29.88 841 24.83 13.4 56.2 45 1.7 35.1
02:35 1012 29.88 841 24.83 13.3 55.9 45 1.6 34.8
02:40 1012 29.88 841 24.83 13.3 56 44 1.4 34.6
02:45 1012 29.88 841 24.83 13.9 57.1 43 1.5 34.7
02:50 1012 29.88 841 24.83 13.9 56.9 44 1.9 35.4
02:55 1012 29.88 841 24.83 13.8 56.8 41 1 33.7
03:00 1012 29.88 841 24.83 14.4 57.8 40 1 33.8
03:05 1012 29.88 841 24.83 14.4 57.9 39 0.6 33.1
03:10 1012 29.88 841 24.83 14.7 58.5 38 0.7 33.2
03:15 1012 29.88 841 24.83 14.7 58.4 40 1.4 34.6
03:20 1012 29.88 841 24.83 14.6 58.2 38 0.5 33
03:25 1012 29.88 841 24.83 14.7 58.4 41 1.8 35.2
03:30 1012 29.88 841 24.83 14.3 57.8 40 1 33.8
03:35 1012 29.88 841 24.83 14.4 58 40 1.1 33.9
03:40 1012 29.88 841 24.83 14.4 57.9 41 1.4 34.5
03:45 1012 29.88 841 24.83 14.5 58 40 1.2 34.1
03:50 1012 29.88 841 24.83 14.4 58 40 1.1 33.9
03:55 1012 29.88 841 24.83 14.2 57.5 42 1.5 34.6
04:00 1012 29.88 841 24.83 13.7 56.7 42 1.3 34.3
04:05 1012 29.88 841 24.83 13.7 56.7 40 0.6 33.1
04:10 1012 29.88 841 24.83 14.2 57.6 40 1 33.8
04:15 1012 29.88 841 24.83 14.2 57.5 41 1.1 34
04:20 1012 29.88 841 24.83 14.1 57.4 40 0.8 33.5
04:25 1012 29.88 841 24.83 14.4 57.8 40 0.8 33.5
04:30 1012 29.88 841 24.83 14.1 57.5 41 1.1 34
04:35 1012 29.88 841 24.83 13.6 56.5 42 1.1 34.1
04:40 1012 29.88 841 24.83 13.6 56.5 42 1.2 34.1
04:45 1012 29.88 841 24.83 13.4 56.2 43 1.3 34.4
04:50 1012 29.88 841 24.83 13.4 56.1 42 0.8 33.5
04:55 1012 29.88 841 24.83 13.6 56.5 41 0.7 33.2
05:00 1012 29.88 841 24.83 13.9 56.9 40 0.6 33.1
05:05 1012 29.88 841 24.83 14 57.1 40 0.8 33.4
05:10 1012 29.88 841 24.83 14.2 57.5 42 1.7 35
05:15 1012 29.88 841 24.83 13.4 56 45 1.9 35.4
05:20 1012 29.88 841 24.83 12.8 55.1 47 1.7 35.1
05:25 1012 29.88 841 24.83 12.4 54.4 48 1.8 35.3
05:30 1012 29.88 841 24.83 12.3 54.1 47 1.4 34.4
05:35 1012 29.88 841 24.83 12.3 54.1 49 1.9 35.4
05:40 1012 29.88 841 24.83 11.9 53.5 50 1.8 35.2
05:45 1012 29.88 841 24.83 11.7 53.1 48 1 33.9
05:50 1012 29.88 841 24.83 12.4 54.3 45 0.8 33.5
05:55 1012 29.88 841 24.83 12.6 54.7 45 1 33.8
06:00 1012 29.88 841 24.83 12.5 54.4 47 1.6 35
06:05 1012 29.88 841 24.83 11.9 53.4 50 1.8 35.2
06:10 1012 29.88 841 24.83 11.5 52.7 50 1.6 35
06:15 1012 29.88 841 24.83 11.7 53 46 0.6 33
06:20 1012 29.88 841 24.83 12.5 54.5 43 0.5 32.9
06:25 1012 29.88 841 24.83 13.2 55.7 42 0.7 33.2
06:30 1012 29.88 841 24.83 13.4 56.1 41 0.6 33
06:35 1012 29.88 841 24.83 13.6 56.5 40 0.2 32.4
06:40 1012 29.88 841 24.83 13.5 56.3 43 1.3 34.3
06:45 1012 29.88 841 24.83 13.6 56.5 42 1 33.8
06:50 1012 29.88 841 24.83 13.8 56.8 42 1.1 33.9
06:55 1012 29.88 841 24.83 13.6 56.4 43 1.3 34.3
07:00 1012 29.88 841 24.83 13.3 56 44 1.4 34.6
07:05 1012 29.88 841 24.83 13.4 56.1 45 1.6 34.9
07:10 1012 29.88 841 24.83 13.5 56.3 44 1.6 34.9
07:15 1012 29.88 841 24.83 13.5 56.2 45 1.9 35.5
07:20 1012 29.88 841 24.83 13.4 56 45 1.6 34.9
07:25 1012 29.88 841 24.83 13.7 56.7 43 1.4 34.5
07:30 1012 29.88 841 24.83 13.9 57.1 44 2.1 35.8
07:35 1012 29.88 841 24.83 14 57.1 46 2.5 36.5
07:40 1012 29.88 841 24.83 13.8 56.9 48 3 37.4
07:45 1012 29.88 841 24.83 13.8 56.8 45 2 35.6
07:50 1012 29.88 841 24.83 14.3 57.7 43 1.9 35.4
07:55 1012 29.88 841 24.83 14.8 58.6 43 2.4 36.3
08:00 1012 29.88 841 24.83 15.2 59.4 42 2.3 36.2
08:05 1012 29.88 841 24.83 15.4 59.8 42 2.7 36.8
08:10 1012 29.88 841 24.83 15.6 60 43 3 37.5
08:15 1012 29.88 841 24.83 15.8 60.4 43 3.3 37.9
08:20 1012 29.88 841 24.83 16.2 61.2 41 3.1 37.7
08:25 1012 29.88 841 24.83 16.8 62.3 40 3.2 37.7
08:30 1012 29.88 841 24.83 17.4 63.4 38 3.1 37.6
08:35 1012 29.88 841 24.83 17.8 64.1 38 3.5 38.4
08:40 1012 29.88 841 24.83 18.5 65.3 38 3.9 39
08:45 1012 29.88 841 24.83 19.2 66.5 35 3.6 38.4
08:50 1011 29.85 841 24.83 19.5 67.2 34 3.4 38.1
08:55 1011 29.85 841 24.83 19.7 67.5 31 2.2 36
09:00 1011 29.85 841 24.83 20.3 68.5 31 2.8 37
09:05 1011 29.85 841 24.83 20.4 68.7 30 2.2 36
09:10 1011 29.85 841 24.83 20.4 68.8 30 2.5 36.5
09:15 1011 29.85 841 24.83 20.2 68.3 29 1.6 34.9
09:20 1011 29.85 841 24.83 20.8 69.4 29 2.1 35.8
09:25 1011 29.85 841 24.83 21.1 70 29 2.4 36.3
09:30 1011 29.85 841 24.83 20.8 69.5 28 2.1 35.7
09:35 1011 29.85 841 24.83 21.1 70.1 27 1.8 35.2
09:40 1011 29.85 840 24.81 22.3 72.2 25 1.7 35.1
09:45 1011 29.85 840 24.81 22.9 73.1 25 2.1 35.7
09:50 1011 29.85 840 24.81 22.7 72.9 26 2.4 36.3
09:55 1011 29.85 840 24.81 22.8 73 24 1.5 34.6
10:00 1011 29.85 840 24.81 22.8 73 25 1.9 35.3
10:05 1011 29.85 840 24.81 22.8 73 26 2.3 36.2
10:10 1011 29.85 840 24.81 22.8 73.1 26 2.5 36.6
10:15 1011 29.85 840 24.81 23.5 74.2 24 1.8 35.2
10:20 1011 29.85 840 24.81 23.1 73.5 23 1.1 34
10:25 1011 29.85 840 24.81 23.4 74.2 24 1.7 35
10:30 1011 29.85 840 24.81 23.6 74.6 21 0.5 33
10:35 1011 29.85 840 24.81 23.2 73.8 22 0.7 33.2
10:40 1011 29.85 840 24.81 23.9 75.1 22 1 33.9
10:45 1011 29.85 840 24.81 25 76.9 21 1.5 34.8
10:50 1011 29.85 840 24.81 25.6 78.1 20 1.3 34.3
10:55 1011 29.85 840 24.81 25.8 78.4 20 1.3 34.4
11:00 1011 29.85 840 24.81 26 78.7 19 0.5 32.9
11:05 1011 29.85 840 24.81 25.9 78.5 19 1.1 33.9
11:10 1010 29.83 840 24.81 26.2 79.1 20 1.6 34.8
11:15 1010 29.83 840 24.81 26.7 80 19 1.6 34.9
11:20 1010 29.83 839 24.78 27 80.6 18 1 33.9
11:25 1010 29.83 839 24.78 27.2 81 15 -1.1 30
11:30 1010 29.83 839 24.78 27 80.5 15 -1.4 29.4
11:35 1010 29.83 839 24.78 27 80.5 15 -1.3 29.6
11:40 1010 29.83 839 24.78 27.3 81.1 15 -1.2 29.9
11:45 1010 29.83 839 24.78 27.3 81.1 15 -1.4 29.5
11:50 1010 29.83 839 24.78 27.3 81.1 15 -1.1 30
11:55 1010 29.83 839 24.78 26.7 80 16 -1.1 30
12:00 1010 29.83 839 24.78 27 80.5 16 -1.1 30
12:05 1010 29.83 839 24.78 26.9 80.3 15 -1.3 29.6
12:10 1010 29.83 839 24.78 26.6 79.9 16 -0.8 30.6
12:15 1009 29.8 839 24.78 26.7 80 15 -1.6 29
12:20 1009 29.8 839 24.78 27.3 81.1 15 -1.8 28.8
12:25 1009 29.8 839 24.78 27.6 81.7 15 -1 30.3
12:30 1009 29.8 838 24.75 27.9 82.1 15 -1.3 29.7
12:35 1009 29.8 838 24.75 27.8 82.1 14 -1.9 28.6
12:40 1009 29.8 838 24.75 27.6 81.7 15 -1.2 29.8
12:45 1009 29.8 838 24.75 27.6 81.6 15 -0.7 30.8
12:50 1009 29.8 838 24.75 27.6 81.7 15 -1.4 29.5
12:55 1009 29.8 838 24.75 27.9 82.1 15 -0.6 31
13:00 1009 29.8 838 24.75 27.6 81.6 15 -1.2 29.8
13:05 1009 29.8 838 24.75 27.5 81.5 14 -2.2 28
13:10 1009 29.8 838 24.75 27.8 82 15 -1 30.3
13:15 1009 29.8 838 24.75 27.7 81.9 17 0.7 33.3
13:20 1009 29.8 838 24.75 27.2 81 17 0.5 32.9
13:25 1009 29.8 838 24.75 27 80.6 18 0.8 33.5
13:30 1009 29.8 838 24.75 27.3 81.1 18 0.8 33.4
13:35 1009 29.8 838 24.75 27.1 80.8 18 0.8 33.4
13:40 1009 29.8 838 24.75 26.9 80.5 17 -0 31.9
13:45 1009 29.8 838 24.75 27 80.6 17 0.5 33
13:50 1009 29.8 838 24.75 27.1 80.8 16 -0.7 30.8
13:55 1009 29.8 838 24.75 27.3 81.1 17 0.3 32.6
14:00 1009 29.8 838 24.75 27.5 81.4 15 -1 30.2
14:05 1009 29.8 838 24.75 27.2 80.9 15 -1.1 30.1
14:10 1009 29.8 838 24.75 27.1 80.7 15 -1.1 30
14:15 1009 29.8 838 24.75 27.1 80.8 15 -1.1 30
14:20 1009 29.8 838 24.75 27.3 81.1 15 -0.9 30.3
14:25 1009 29.8 838 24.75 27.5 81.6 14 -2 28.5
14:30 1009 29.8 838 24.75 27.7 81.9 14 -1.7 28.9
14:35 1009 29.8 838 24.75 27.9 82.2 15 -1 30.2
14:40 1009 29.8 838 24.75 27.9 82.2 14 -2.2 28.1
14:45 1009 29.8 838 24.75 27.7 81.8 15 -1.4 29.5
14:50 1009 29.8 838 24.75 27.6 81.7 15 -1.5 29.3
14:55 1008 29.77 838 24.75 27.4 81.3 15 -1.2 29.9
15:00 1008 29.77 838 24.75 27.1 80.8 16 -1 30.2
15:05 1008 29.77 838 24.75 27.1 80.7 17 0.2 32.4
15:10 1008 29.77 838 24.75 26.8 80.3 18 0.5 32.9
15:15 1008 29.77 838 24.75 26.7 80 18 0.7 33.3
15:20 1008 29.77 838 24.75 26.3 79.4 20 2 35.6
15:25 1009 29.8 838 24.75 26.2 79.1 19 0.9 33.6
15:30 1009 29.8 838 24.75 26 78.9 20 1.3 34.3
15:35 1009 29.8 838 24.75 25.7 78.3 20 1.1 34
15:40 1009 29.8 838 24.75 25.5 77.9 20 0.9 33.7
15:45 1009 29.8 838 24.75 25.3 77.5 19 0.5 32.8
15:50 1009 29.8 838 24.75 25.2 77.3 18 -0.4 31.2
15:55 1009 29.8 838 24.75 24.9 76.9 18 -0.5 31.1
16:00 1009 29.8 838 24.75 24.8 76.6 19 -0.4 31.3
16:05 1009 29.8 838 24.75 24.6 76.2 19 -0.6 31
16:10 1009 29.8 838 24.75 24.6 76.2 18 -0.9 30.5
16:15 1009 29.8 838 24.75 24.5 76.2 18 -1.1 30
16:20 1009 29.8 838 24.75 24.4 76 19 -0.1 31.8
16:25 1009 29.8 838 24.75 24.5 76.1 19 -0.7 30.7
16:30 1009 29.8 838 24.75 24.5 76 19 -0.2 31.6
16:35 1009 29.8 838 24.75 24.5 76 19 -0.2 31.7
16:40 1009 29.8 838 24.75 24.3 75.7 22 1.3 34.3
16:45 1009 29.8 838 24.75 24.3 75.7 19 -0.5 31.1
16:50 1009 29.8 838 24.75 24.2 75.6 19 -0.6 31
16:55 1009 29.8 838 24.75 24.3 75.7 19 -0.3 31.4
17:00 1009 29.8 838 24.75 24.1 75.4 19 -0.4 31.3
17:05 1009 29.8 838 24.75 23.8 74.8 21 0.4 32.7
17:10 1009 29.8 838 24.75 23.7 74.7 22 1.1 33.9
17:15 1009 29.8 838 24.75 23.7 74.7 24 2.4 36.3
17:20 1009 29.8 838 24.75 23.7 74.6 24 2 35.7
17:25 1009 29.8 838 24.75 23.6 74.5 22 0.9 33.7
17:30 1009 29.8 838 24.75 23.5 74.3 25 2.5 36.4
17:35 1009 29.8 838 24.75 23.2 73.8 25 2.2 35.9
17:40 1009 29.8 838 24.75 23 73.5 24 1.6 34.9
17:45 1009 29.8 838 24.75 23 73.3 22 0.4 32.7
17:50 1009 29.8 838 24.75 23.2 73.7 25 2.3 36.2
17:55 1009 29.8 838 24.75 23.2 73.7 23 1.3 34.4
18:00 1009 29.8 838 24.75 23 73.4 24 1.4 34.6
18:05 1009 29.8 838 24.75 22.7 72.9 26 2.7 36.9
18:10 1009 29.8 838 24.75 22.2 72 30 4.2 39.6
18:15 1009 29.8 838 24.75 21.6 70.9 33 4.7 40.5
18:20 1009 29.8 838 24.75 21.3 70.4 32 4.2 39.6
18:25 1009 29.8 838 24.75 21.1 70.1 33 4.3 39.7
18:30 1009 29.8 839 24.78 21.2 70.2 30 3.3 38
18:35 1010 29.83 839 24.78 21.5 70.7 28 2.2 36
18:40 1009 29.8 839 24.78 21.9 71.4 28 2.6 36.7
18:45 1009 29.8 839 24.78 21.8 71.3 26 1.9 35.4
18:50 1010 29.83 839 24.78 21.6 70.9 27 1.8 35.2
18:55 1010 29.83 839 24.78 21.5 70.6 27 2 35.6
19:00 1010 29.83 839 24.78 21.4 70.5 26 1.2 34.2
19:05 1010 29.83 839 24.78 21.3 70.4 25 0.8 33.5
19:10 1010 29.83 839 24.78 21.1 70 26 1.1 34.1
19:15 1010 29.83 839 24.78 21.1 69.9 25 0.7 33.2
19:20 1010 29.83 839 24.78 21 69.9 26 0.8 33.5
19:25 1010 29.83 839 24.78 20.9 69.7 25 0.5 33
19:30 1010 29.83 840 24.81 20.8 69.5 26 0.9 33.7
19:35 1010 29.83 840 24.81 20.7 69.2 24 -0.5 31
19:40 1011 29.85 840 24.81 20.7 69.3 23 -1.2 29.9
19:45 1011 29.85 840 24.81 20.8 69.4 23 -1 30.3
19:50 1011 29.85 840 24.81 20.7 69.3 23 -0.9 30.4
19:55 1011 29.85 840 24.81 20.6 69 24 -0.7 30.8
20:00 1011 29.85 840 24.81 20.4 68.8 24 -0.8 30.5
20:05 1011 29.85 840 24.81 20.3 68.6 24 -0.9 30.3
20:10 1011 29.85 841 24.83 20.3 68.6 24 -0.6 30.8
20:15 1012 29.88 841 24.83 20.2 68.4 25 -0.4 31.4
20:20 1012 29.88 841 24.83 20.1 68.2 25 -0.5 31
20:25 1012 29.88 841 24.83 20 68 25 -0.7 30.8
20:30 1012 29.88 841 24.83 20 67.9 25 -0.4 31.2
20:35 1012 29.88 841 24.83 19.8 67.6 25 -0.5 31.1
20:40 1012 29.88 841 24.83 19.5 67.2 25 -0.7 30.7
20:45 1012 29.88 841 24.83 19.4 67 25 -0.9 30.3
20:50 1012 29.88 842 24.86 19.4 66.8 25 -1 30.2
20:55 1013 29.91 842 24.86 19.2 66.6 25 -1.1 30
21:00 1013 29.91 842 24.86 19.1 66.3 25 -1 30.2
21:05 1013 29.91 842 24.86 18.9 66.1 25 -1.2 29.9
21:10 1013 29.91 842 24.86 18.9 65.9 26 -1.1 30
21:15 1013 29.91 843 24.89 18.8 65.9 26 -0.9 30.3
21:20 1013 29.91 843 24.89 18.7 65.6 27 -0.4 31.2
21:25 1013 29.91 842 24.86 18.5 65.2 28 -0.2 31.6
21:30 1013 29.91 843 24.89 18.1 64.6 29 0.2 32.3
21:35 1013 29.91 843 24.89 17.8 64 30 0.2 32.4
21:40 1013 29.91 843 24.89 17.7 63.8 30 0.2 32.4
21:45 1013 29.91 843 24.89 17.5 63.5 31 0.5 32.9
21:50 1014 29.94 843 24.89 17.3 63.1 32 0.7 33.3
21:55 1014 29.94 843 24.89 17 62.6 34 1 33.9
22:00 1014 29.94 843 24.89 16.8 62.3 34 0.9 33.7
22:05 1014 29.94 843 24.89 16.7 62 36 1.5 34.7
22:10 1014 29.94 843 24.89 16.3 61.3 37 1.7 35.1
22:15 1014 29.94 843 24.89 16 60.7 38 1.9 35.4
22:20 1014 29.94 843 24.89 15.8 60.4 39 2 35.5
22:25 1014 29.94 844 24.92 15.7 60.2 41 2.4 36.3
22:30 1015 29.97 844 24.92 15.6 60.1 40 2.3 36.1
22:35 1015 29.97 844 24.92 15.6 60.1 43 3.2 37.7
22:40 1015 29.97 844 24.92 15.6 60.1 45 3.7 38.7
22:45 1015 29.97 844 24.92 15.5 60 47 4.2 39.6
22:50 1015 29.97 844 24.92 15.4 59.8 47 4.3 39.7
22:55 1015 29.97 844 24.92 15.2 59.3 48 4.4 39.9
23:00 1016 30 845 24.95 14.8 58.7 50 4.6 40.3
23:05 1016 30 845 24.95 14.5 58 53 5 41
23:10 1016 30 845 24.95 13.8 56.8 55 5 41.1
23:15 1016 30 845 24.95 13.2 55.8 57 4.9 40.9
23:20 1017 30.03 846 24.98 12.9 55.2 57 4.7 40.4
23:25 1017 30.03 846 24.98 12.5 54.4 59 4.7 40.5
23:30 1017 30.03 846 24.98 12.1 53.8 60 4.5 40.2
23:35 1017 30.03 846 24.98 11.7 53.1 60 4.3 39.7
23:40 1017 30.03 846 24.98 11.5 52.7 61 4.4 39.9
23:45 1017 30.03 846 24.98 11.3 52.4 61 4.1 39.4
23:50 1017 30.03 847 25.01 11.2 52.2 60 3.9 39
23:55 1018 30.06 847 25.01 11.2 52.2 59 3.5 38.3
24:00 1018 30.06 847 25.01 11.2 52.2 57 3.2 37.7